createdAt,value
2022-12-15T00:01:59.505Z,9.07
2022-12-15T00:04:44.893Z,11.27
2022-12-15T00:07:30.291Z,10.90
2022-12-15T00:10:15.686Z,12.32
2022-12-15T00:13:01.184Z,9.63
2022-12-15T00:15:46.789Z,12.23
2022-12-15T00:18:32.129Z,9.80
2022-12-15T00:21:18.481Z,12.32
2022-12-15T00:24:03.990Z,9.30
2022-12-15T00:26:49.317Z,10.40
2022-12-15T00:29:34.791Z,9.50
2022-12-15T00:32:20.069Z,9.52
2022-12-15T00:35:05.358Z,10.23
2022-12-15T00:37:50.718Z,10.30
2022-12-15T00:40:17.374Z,11.55
2022-12-15T00:42:43.951Z,16.00
2022-12-15T00:45:11.171Z,8.68
2022-12-15T00:47:37.804Z,8.90
2022-12-15T00:50:23.624Z,9.00
2022-12-15T00:53:09.011Z,16.98
2022-12-15T00:55:54.356Z,10.57
2022-12-15T00:58:39.570Z,11.45
2022-12-15T01:01:28.482Z,10.23
2022-12-15T01:04:13.752Z,9.05
2022-12-15T01:06:59.357Z,9.05
2022-12-15T01:09:44.912Z,8.23
2022-12-15T01:12:30.316Z,8.85
2022-12-15T01:15:15.775Z,8.00
2022-12-15T01:18:01.110Z,9.95
2022-12-15T01:20:27.734Z,7.57
2022-12-15T01:22:55.794Z,10.15
2022-12-15T01:25:25.253Z,9.82
2022-12-15T01:27:52.278Z,11.75
2022-12-15T01:30:21.817Z,10.27
2022-12-15T01:32:48.838Z,9.25
2022-12-15T01:35:16.152Z,9.82
2022-12-15T01:37:42.870Z,10.05
2022-12-15T01:40:34.795Z,10.52
2022-12-15T01:43:01.670Z,16.90
2022-12-15T01:45:31.000Z,12.80
2022-12-15T01:48:12.592Z,12.02
2022-12-15T01:50:52.758Z,11.07
2022-12-15T01:53:19.394Z,9.25
2022-12-15T01:55:48.026Z,9.48
2022-12-15T01:58:18.114Z,11.52
2022-12-15T02:00:44.952Z,7.82
2022-12-15T02:03:13.089Z,8.80
2022-12-15T02:05:40.943Z,10.45
2022-12-15T02:08:08.276Z,8.70
2022-12-15T02:10:48.680Z,9.00
2022-12-15T02:13:36.482Z,7.50
2022-12-15T02:16:20.836Z,11.25
2022-12-15T02:19:00.900Z,6.47
2022-12-15T02:21:58.131Z,10.90
2022-12-15T02:24:52.173Z,8.50
2022-12-15T02:27:31.804Z,11.13
2022-12-15T02:30:26.304Z,8.63
2022-12-15T02:33:08.095Z,9.60
2022-12-15T02:36:01.076Z,8.60
2022-12-15T02:38:37.387Z,8.07
2022-12-15T02:41:06.529Z,7.80
2022-12-15T02:43:37.437Z,8.50
2022-12-15T02:46:06.910Z,11.27
2022-12-15T02:48:55.145Z,15.60
2022-12-15T02:51:43.931Z,9.98
2022-12-15T02:54:42.315Z,8.20
2022-12-15T02:57:24.764Z,10.55
2022-12-15T02:59:55.496Z,7.25
2022-12-15T03:02:26.498Z,9.00
2022-12-15T03:04:53.873Z,7.25
2022-12-15T03:07:23.542Z,8.40
2022-12-15T03:09:50.280Z,6.65
2022-12-15T03:12:16.825Z,7.43
2022-12-15T03:14:44.091Z,16.42
2022-12-15T03:17:10.769Z,7.65
2022-12-15T03:19:37.392Z,9.50
2022-12-15T03:22:04.278Z,8.02
2022-12-15T03:24:30.931Z,8.43
2022-12-15T03:26:57.710Z,15.85
2022-12-15T03:29:24.371Z,8.23
2022-12-15T03:31:51.010Z,11.45
2022-12-15T03:34:17.938Z,8.52
2022-12-15T03:36:44.593Z,9.27
2022-12-15T03:39:11.284Z,7.53
2022-12-15T03:41:38.058Z,10.32
2022-12-15T03:44:04.861Z,7.82
2022-12-15T03:46:31.466Z,8.15
2022-12-15T03:48:58.499Z,10.43
2022-12-15T03:51:25.238Z,8.85
2022-12-15T03:53:54.886Z,7.90
2022-12-15T03:56:21.485Z,10.60
2022-12-15T03:58:48.129Z,8.10
2022-12-15T04:01:20.948Z,8.60
2022-12-15T04:03:47.835Z,9.95
2022-12-15T04:06:14.488Z,7.72
2022-12-15T04:08:41.043Z,10.10
2022-12-15T04:11:07.670Z,7.05
2022-12-15T04:13:34.561Z,7.97
2022-12-15T04:16:04.472Z,8.00
2022-12-15T04:18:31.086Z,7.60
2022-12-15T04:20:57.695Z,8.02
2022-12-15T04:23:24.362Z,8.00
2022-12-15T04:26:09.813Z,8.13
2022-12-15T04:28:55.150Z,8.65
2022-12-15T04:31:44.631Z,18.40
2022-12-15T04:34:32.779Z,7.18
2022-12-15T04:37:18.054Z,7.55
2022-12-15T04:40:07.638Z,7.32
2022-12-15T04:42:54.344Z,7.50
2022-12-15T04:45:42.989Z,7.57
2022-12-15T04:48:29.172Z,7.90
2022-12-15T04:51:14.520Z,6.93
2022-12-15T04:54:01.956Z,8.68
2022-12-15T04:56:47.417Z,10.02
2022-12-15T04:59:35.555Z,7.60
2022-12-15T05:02:21.019Z,15.57
2022-12-15T05:05:06.354Z,18.00
2022-12-15T05:07:51.711Z,18.80
2022-12-15T05:10:37.239Z,15.27
2022-12-15T05:13:26.427Z,10.25
2022-12-15T05:16:11.904Z,17.60
2022-12-15T05:18:57.339Z,8.30
2022-12-15T05:21:42.787Z,7.53
2022-12-15T05:24:28.143Z,12.23
2022-12-15T05:27:13.600Z,16.63
2022-12-15T05:29:58.929Z,6.57
2022-12-15T05:32:25.549Z,7.30
2022-12-15T05:34:52.114Z,8.38
2022-12-15T05:37:18.756Z,8.18
2022-12-15T05:39:45.319Z,9.43
2022-12-15T05:42:11.891Z,8.23
2022-12-15T05:44:38.489Z,10.88
2022-12-15T05:47:05.119Z,7.00
2022-12-15T05:49:31.918Z,7.95
2022-12-15T05:51:58.893Z,7.82
2022-12-15T05:54:25.484Z,16.42
2022-12-15T05:56:52.059Z,8.55
2022-12-15T05:59:21.767Z,6.65
2022-12-15T06:01:48.533Z,7.88
2022-12-15T06:04:15.311Z,6.95
2022-12-15T06:06:42.543Z,10.93
2022-12-15T06:09:09.593Z,14.55
2022-12-15T06:11:37.291Z,19.92
2022-12-15T06:14:03.895Z,7.20
2022-12-15T06:16:30.866Z,11.07
2022-12-15T06:19:00.368Z,8.35
2022-12-15T06:21:30.575Z,7.47
2022-12-15T06:23:58.039Z,18.90
2022-12-15T06:26:36.597Z,8.00
2022-12-15T06:29:05.114Z,9.60
2022-12-15T06:31:33.012Z,8.18
2022-12-15T06:34:02.411Z,8.40
2022-12-15T06:36:30.603Z,18.63
2022-12-15T06:39:01.840Z,8.85
2022-12-15T06:41:32.088Z,9.10
2022-12-15T06:43:59.582Z,8.50
2022-12-15T06:46:27.837Z,17.05
2022-12-15T06:48:54.485Z,8.70
2022-12-15T06:51:21.629Z,7.13
2022-12-15T06:53:54.103Z,7.65
2022-12-15T06:56:33.679Z,8.65
2022-12-15T06:59:01.795Z,7.93
2022-12-15T07:01:29.185Z,8.75
2022-12-15T07:03:56.918Z,8.45
2022-12-15T07:06:23.777Z,8.50
2022-12-15T07:08:53.240Z,13.63
2022-12-15T07:11:21.520Z,19.60
2022-12-15T07:13:52.712Z,9.15
2022-12-15T07:16:20.123Z,7.53
2022-12-15T07:18:46.880Z,12.00
2022-12-15T07:21:13.575Z,9.18
2022-12-15T07:23:53.946Z,8.73
2022-12-15T07:26:22.197Z,7.63
2022-12-15T07:28:48.786Z,9.18
2022-12-15T07:31:15.744Z,17.13
2022-12-15T07:33:42.720Z,14.52
2022-12-15T07:36:09.561Z,10.02
2022-12-15T07:38:36.800Z,8.70
2022-12-15T07:41:05.862Z,9.38
2022-12-15T07:43:33.121Z,7.32
2022-12-15T07:46:00.509Z,17.33
2022-12-15T07:48:27.622Z,21.33
2022-12-15T07:51:02.805Z,10.00
2022-12-15T07:53:35.499Z,8.70
2022-12-15T07:56:08.802Z,9.68
2022-12-15T07:58:36.887Z,22.05
2022-12-15T08:01:06.015Z,9.35
2022-12-15T08:03:33.530Z,7.45
2022-12-15T08:06:05.403Z,8.63
2022-12-15T08:08:33.025Z,9.02
2022-12-15T08:11:03.710Z,7.15
2022-12-15T08:14:01.235Z,18.00
2022-12-15T08:16:17.025Z,10.88
2022-12-15T08:18:43.682Z,12.75
2022-12-15T08:21:11.600Z,8.45
2022-12-15T08:23:40.162Z,9.52
2022-12-15T08:26:09.822Z,9.80
2022-12-15T08:28:37.944Z,10.43
2022-12-15T08:31:06.819Z,19.15
2022-12-15T08:33:34.118Z,16.80
2022-12-15T08:36:03.697Z,9.30
2022-12-15T08:38:31.409Z,8.15
2022-12-15T08:40:58.696Z,8.15
2022-12-15T08:43:25.314Z,10.98
2022-12-15T08:45:51.949Z,8.95
2022-12-15T08:48:18.595Z,7.75
2022-12-15T08:50:45.729Z,8.23
2022-12-15T08:53:30.806Z,10.88
2022-12-15T08:56:09.904Z,17.50
2022-12-15T08:58:36.514Z,10.98
2022-12-15T09:01:06.374Z,8.68
2022-12-15T09:03:34.882Z,9.38
2022-12-15T09:06:03.775Z,8.27
2022-12-15T09:08:31.063Z,8.48
2022-12-15T09:10:59.199Z,9.90
2022-12-15T09:13:26.405Z,11.02
2022-12-15T09:16:17.722Z,10.98
2022-12-15T09:18:47.673Z,9.07
2022-12-15T09:21:15.699Z,9.13
2022-12-15T09:23:42.947Z,7.78
2022-12-15T09:26:12.069Z,7.10
2022-12-15T09:28:39.243Z,9.85
2022-12-15T09:31:08.348Z,7.75
2022-12-15T09:33:36.010Z,9.82
2022-12-15T09:36:03.627Z,9.23
2022-12-15T09:38:30.932Z,8.75
2022-12-15T09:40:57.916Z,16.65
2022-12-15T09:43:35.406Z,7.55
2022-12-15T09:46:27.203Z,7.72
2022-12-15T09:48:55.560Z,8.13
2022-12-15T09:51:39.160Z,9.82
2022-12-15T09:54:06.773Z,8.70
2022-12-15T09:56:49.663Z,10.90
2022-12-15T09:59:58.537Z,7.10
2022-12-15T10:03:02.062Z,9.23
2022-12-15T10:08:56.300Z,16.85
2022-12-15T10:11:50.330Z,13.27
2022-12-15T10:14:30.250Z,9.10
2022-12-15T10:17:23.158Z,7.32
2022-12-15T10:19:52.726Z,10.10
2022-12-15T10:22:30.624Z,10.40
2022-12-15T10:25:10.490Z,7.88
2022-12-15T10:27:59.465Z,7.10
2022-12-15T10:30:26.361Z,7.25
2022-12-15T10:33:16.525Z,15.55
2022-12-15T10:35:44.007Z,8.80
2022-12-15T10:38:37.656Z,18.27
2022-12-15T10:41:14.023Z,7.60
2022-12-15T10:43:43.252Z,10.73
2022-12-15T10:46:21.761Z,8.38
2022-12-15T10:49:09.939Z,6.80
2022-12-15T10:51:53.019Z,8.35
2022-12-15T10:54:20.769Z,12.13
2022-12-15T10:56:50.936Z,9.07
2022-12-15T10:59:23.399Z,6.05
2022-12-15T11:01:51.104Z,7.55
2022-12-15T11:04:29.093Z,9.80
2022-12-15T11:07:01.903Z,6.28
2022-12-15T11:09:38.438Z,6.95
2022-12-15T11:12:50.506Z,6.40
2022-12-15T11:15:23.432Z,9.05
2022-12-15T11:17:58.373Z,6.03
2022-12-15T11:20:33.427Z,6.80
2022-12-15T11:23:16.525Z,10.98
2022-12-15T11:25:48.039Z,7.00
2022-12-15T11:28:24.006Z,8.93
2022-12-15T11:31:00.228Z,16.88
2022-12-15T11:33:26.895Z,6.53
2022-12-15T11:36:09.992Z,6.72
2022-12-15T11:39:06.495Z,9.65
2022-12-15T11:41:43.118Z,7.43
2022-12-15T11:44:18.888Z,8.93
2022-12-15T11:47:07.824Z,10.85
2022-12-15T11:49:52.719Z,6.28
2022-12-15T11:52:43.992Z,6.38
2022-12-15T11:55:43.137Z,6.40
2022-12-15T11:58:34.721Z,6.20
2022-12-15T12:01:22.063Z,8.07
2022-12-15T12:04:09.012Z,19.35
2022-12-15T12:06:45.183Z,8.55
2022-12-15T12:09:56.437Z,13.13
2022-12-15T12:12:36.090Z,5.35
2022-12-15T12:15:27.756Z,7.70
2022-12-15T12:18:12.861Z,5.15
2022-12-15T12:20:46.890Z,9.98
2022-12-15T12:23:29.733Z,6.10
2022-12-15T12:26:11.014Z,18.73
2022-12-15T12:28:48.639Z,6.35
2022-12-15T12:31:42.912Z,7.10
2022-12-15T12:34:17.472Z,6.35
2022-12-15T12:36:45.252Z,14.93
2022-12-15T12:39:23.116Z,6.20
2022-12-15T12:41:59.773Z,9.85
2022-12-15T12:44:35.903Z,8.25
2022-12-15T12:47:26.330Z,7.95
2022-12-15T12:49:58.631Z,11.70
2022-12-15T12:52:30.698Z,17.35
2022-12-15T12:55:01.905Z,12.90
2022-12-15T12:57:42.484Z,14.35
2022-12-15T13:00:20.288Z,10.05
2022-12-15T13:02:52.656Z,13.15
2022-12-15T13:05:22.513Z,8.20
2022-12-15T13:08:03.397Z,10.27
2022-12-15T13:10:30.089Z,14.32
2022-12-15T13:12:59.174Z,11.98
2022-12-15T13:15:37.202Z,6.32
2022-12-15T13:18:17.347Z,6.30
2022-12-15T13:20:45.509Z,8.63
2022-12-15T13:23:21.375Z,10.35
2022-12-15T13:25:57.313Z,22.73
2022-12-15T13:28:36.130Z,11.57
2022-12-15T13:31:11.601Z,6.85
2022-12-15T13:34:17.878Z,11.68
2022-12-15T13:36:54.688Z,8.65
2022-12-15T13:39:22.145Z,7.13
2022-12-15T13:42:23.737Z,12.70
2022-12-15T13:44:43.876Z,7.68
2022-12-15T13:47:29.883Z,7.07
2022-12-15T13:50:29.964Z,6.90
2022-12-15T13:56:05.730Z,6.07
2022-12-15T13:58:41.217Z,8.90
2022-12-15T14:01:30.181Z,6.40
2022-12-15T14:04:05.995Z,7.03
2022-12-15T14:06:43.854Z,6.70
2022-12-15T14:09:15.062Z,6.88
2022-12-15T14:11:58.629Z,6.70
2022-12-15T14:14:33.294Z,14.10
2022-12-15T14:17:02.763Z,11.65
2022-12-15T14:19:41.215Z,22.35
2022-12-15T14:22:29.070Z,10.70
2022-12-15T14:25:16.217Z,10.75
2022-12-15T14:27:42.793Z,12.57
2022-12-15T14:30:15.024Z,7.95
2022-12-15T14:32:44.098Z,7.60
2022-12-15T14:35:17.393Z,9.98
2022-12-15T14:37:44.165Z,11.98
2022-12-15T14:40:21.372Z,10.95
2022-12-15T14:42:54.057Z,6.57
2022-12-15T14:45:25.470Z,7.95
2022-12-15T14:48:21.615Z,6.50
2022-12-15T14:50:48.969Z,6.50
2022-12-15T14:53:18.282Z,7.55
2022-12-15T14:55:44.890Z,15.20
2022-12-15T14:58:34.870Z,7.18
2022-12-15T15:01:04.089Z,10.25
2022-12-15T15:03:39.060Z,8.25
2022-12-15T15:06:17.138Z,11.07
2022-12-15T15:08:50.734Z,18.48
2022-12-15T15:11:29.663Z,12.02
2022-12-15T15:14:00.165Z,12.27
2022-12-15T15:16:27.244Z,13.10
2022-12-15T15:18:55.881Z,17.85
2022-12-15T15:21:25.565Z,30.83
2022-12-15T15:24:04.364Z,14.88
2022-12-15T15:26:31.546Z,15.35
2022-12-15T15:28:58.591Z,15.88
2022-12-15T15:31:25.237Z,15.80
2022-12-15T15:33:52.844Z,16.33
2022-12-15T15:36:19.584Z,18.17
2022-12-15T15:38:52.046Z,14.57
2022-12-15T15:41:30.141Z,18.33
2022-12-15T15:43:59.244Z,15.25
2022-12-15T15:46:30.316Z,12.27
2022-12-15T15:48:59.184Z,12.27
2022-12-15T15:51:27.287Z,10.55
2022-12-15T15:53:57.891Z,17.38
2022-12-15T15:56:24.575Z,29.35
2022-12-15T15:58:51.114Z,14.82
2022-12-15T16:01:17.682Z,12.23
2022-12-15T16:03:44.428Z,15.32
2022-12-15T16:06:17.626Z,20.00
2022-12-15T16:08:46.328Z,27.17
2022-12-15T16:11:12.976Z,27.45
2022-12-15T16:13:39.792Z,18.00
2022-12-15T16:16:06.966Z,18.02
2022-12-15T16:18:34.128Z,12.63
2022-12-15T16:21:01.030Z,31.48
2022-12-15T16:23:29.534Z,13.38
2022-12-15T16:26:00.088Z,13.27
2022-12-15T16:28:29.647Z,13.48
2022-12-15T16:31:01.394Z,14.13
2022-12-15T16:33:28.283Z,19.75
2022-12-15T16:35:55.024Z,12.60
2022-12-15T16:38:26.056Z,27.52
2022-12-15T16:40:55.337Z,14.40
2022-12-15T16:43:26.160Z,18.80
2022-12-15T16:45:54.845Z,12.25
2022-12-15T16:48:21.717Z,13.00
2022-12-15T16:50:58.103Z,10.05
2022-12-15T16:53:35.167Z,13.85
2022-12-15T16:56:05.940Z,18.73
2022-12-15T16:58:35.425Z,12.73
2022-12-15T17:01:02.266Z,14.07
2022-12-15T17:03:29.191Z,31.40
2022-12-15T17:06:04.001Z,17.00
2022-12-15T17:08:46.681Z,31.70
2022-12-15T17:11:21.514Z,31.75
2022-12-15T17:13:51.193Z,23.45
2022-12-15T17:16:19.593Z,30.23
2022-12-15T17:18:46.549Z,11.35
2022-12-15T17:21:45.124Z,30.55
2022-12-15T17:24:15.582Z,17.63
2022-12-15T17:26:44.319Z,28.30
2022-12-15T17:29:17.304Z,11.52
2022-12-15T17:31:44.120Z,29.38
2022-12-15T17:34:46.156Z,14.27
2022-12-15T17:37:14.216Z,13.10
2022-12-15T17:39:41.804Z,32.47
2022-12-15T17:42:20.580Z,13.40
2022-12-15T17:44:48.275Z,9.82
2022-12-15T17:47:16.403Z,12.52
2022-12-15T17:49:43.880Z,9.57
2022-12-15T17:52:19.315Z,13.00
2022-12-15T17:54:46.064Z,20.30
2022-12-15T17:57:12.826Z,9.40
2022-12-15T17:59:39.416Z,15.90
2022-12-15T18:02:06.305Z,18.52
2022-12-15T18:04:33.096Z,11.63
2022-12-15T18:07:01.941Z,17.25
2022-12-15T18:09:28.959Z,19.75
2022-12-15T18:11:55.525Z,22.67
2022-12-15T18:14:22.777Z,13.68
2022-12-15T18:16:49.983Z,16.45
2022-12-15T18:19:16.667Z,18.88
2022-12-15T18:21:43.348Z,11.20
2022-12-15T18:24:13.098Z,15.77
2022-12-15T18:26:39.683Z,15.00
2022-12-15T18:29:20.193Z,40.00
2022-12-15T18:31:48.560Z,20.58
2022-12-15T18:34:17.863Z,18.65
2022-12-15T18:36:44.891Z,30.13
2022-12-15T18:39:19.515Z,30.73
2022-12-15T18:41:46.789Z,36.97
2022-12-15T18:44:26.604Z,20.05
2022-12-15T18:46:55.107Z,26.95
2022-12-15T18:49:22.578Z,31.50
2022-12-15T18:51:49.301Z,33.38
2022-12-15T18:54:22.330Z,37.60
2022-12-15T18:56:49.537Z,27.02
2022-12-15T18:59:17.769Z,17.80
2022-12-15T19:01:46.273Z,19.10
2022-12-15T19:04:13.952Z,15.68
2022-12-15T19:06:41.354Z,11.20
2022-12-15T19:09:15.557Z,27.38
2022-12-15T19:12:03.797Z,15.77
2022-12-15T19:14:42.899Z,13.80
2022-12-15T19:17:42.136Z,15.43
2022-12-15T19:20:36.059Z,24.25
2022-12-15T19:23:03.288Z,16.05
2022-12-15T19:25:30.700Z,15.82
2022-12-15T19:27:59.788Z,45.63
2022-12-15T19:30:29.316Z,16.45
2022-12-15T19:32:56.155Z,13.23
2022-12-15T19:35:23.095Z,15.52
2022-12-15T19:37:49.936Z,25.50
2022-12-15T19:40:27.328Z,16.08
2022-12-15T19:42:55.692Z,16.65
2022-12-15T19:45:27.520Z,28.15
2022-12-15T19:47:54.964Z,38.10
2022-12-15T19:50:24.127Z,14.98
2022-12-15T19:52:54.861Z,18.75
2022-12-15T19:55:25.907Z,18.58
2022-12-15T19:57:52.677Z,17.88
2022-12-15T20:00:22.229Z,39.55
2022-12-15T20:02:51.472Z,15.57
2022-12-15T20:05:19.378Z,23.60
2022-12-15T20:07:46.530Z,15.50
2022-12-15T20:10:23.317Z,17.88
2022-12-15T20:12:53.338Z,17.33
2022-12-15T20:15:22.909Z,16.80
2022-12-15T20:17:56.398Z,24.33
2022-12-15T20:20:24.635Z,16.13
2022-12-15T20:22:56.309Z,15.05
2022-12-15T20:25:26.171Z,18.13
2022-12-15T20:27:52.842Z,25.92
2022-12-15T20:30:22.436Z,17.73
2022-12-15T20:32:49.479Z,19.75
2022-12-15T20:35:17.695Z,18.08
2022-12-15T20:37:44.446Z,16.50
2022-12-15T20:40:19.614Z,22.08
2022-12-15T20:42:46.712Z,16.25
2022-12-15T20:45:15.467Z,19.17
2022-12-15T20:47:44.378Z,24.02
2022-12-15T20:50:37.397Z,24.02
2022-12-15T20:53:05.872Z,18.15
2022-12-15T20:55:32.537Z,21.90
2022-12-15T20:57:59.215Z,25.30
2022-12-15T21:00:26.209Z,29.67
2022-12-15T21:02:55.020Z,32.53
2022-12-15T21:05:24.606Z,27.48
2022-12-15T21:07:52.199Z,27.02
2022-12-15T21:10:20.239Z,33.00
2022-12-15T21:12:49.091Z,29.35
2022-12-15T21:15:22.219Z,27.08
2022-12-15T21:17:57.891Z,30.35
2022-12-15T21:20:30.443Z,25.25
2022-12-15T21:22:57.696Z,32.03
2022-12-15T21:25:26.367Z,25.58
2022-12-15T21:27:53.283Z,25.50
2022-12-15T21:30:22.772Z,27.77
2022-12-15T21:32:50.445Z,25.83
2022-12-15T21:35:18.637Z,24.30
2022-12-15T21:37:49.532Z,29.88
2022-12-15T21:40:21.155Z,26.95
2022-12-15T21:42:49.916Z,29.50
2022-12-15T21:45:19.709Z,25.15
2022-12-15T21:48:06.070Z,20.73
2022-12-15T21:50:33.486Z,26.65
2022-12-15T21:53:01.215Z,29.67
2022-12-15T21:55:29.251Z,26.23
2022-12-15T21:57:57.167Z,26.27
2022-12-15T22:00:25.036Z,31.73
2022-12-15T22:02:53.474Z,23.83
2022-12-15T22:05:21.759Z,23.10
2022-12-15T22:07:49.485Z,28.00
2022-12-15T22:10:17.649Z,34.78
2022-12-15T22:12:59.298Z,25.08
2022-12-15T22:15:28.237Z,24.90
2022-12-15T22:17:56.076Z,24.35
2022-12-15T22:20:24.425Z,29.05
2022-12-15T22:22:51.311Z,23.73
2022-12-15T22:25:21.388Z,24.23
2022-12-15T22:27:48.550Z,23.75
2022-12-15T22:30:25.315Z,22.33
2022-12-15T22:32:52.667Z,27.80
2022-12-15T22:35:23.033Z,23.55
2022-12-15T22:37:53.452Z,27.92
2022-12-15T22:40:21.483Z,25.48
2022-12-15T22:42:53.199Z,25.48
2022-12-15T22:45:23.946Z,31.25
2022-12-15T22:47:52.183Z,22.65
2022-12-15T22:50:22.132Z,23.65
2022-12-15T22:52:48.808Z,21.65
2022-12-15T22:55:16.869Z,22.38
2022-12-15T22:57:53.994Z,24.60
2022-12-15T23:00:20.711Z,22.80
2022-12-15T23:02:47.584Z,20.17
2022-12-15T23:05:18.587Z,35.83
2022-12-15T23:07:45.289Z,24.73
2022-12-15T23:10:33.020Z,35.22
2022-12-15T23:13:00.029Z,22.58
2022-12-15T23:15:47.060Z,29.05
2022-12-15T23:18:14.105Z,23.15
2022-12-15T23:20:41.149Z,21.63
2022-12-15T23:23:08.547Z,21.05
2022-12-15T23:25:35.334Z,22.52
2022-12-15T23:28:01.950Z,28.33
2022-12-15T23:30:28.516Z,21.75
2022-12-15T23:32:55.445Z,42.72
2022-12-15T23:35:22.221Z,21.77
2022-12-15T23:37:48.815Z,26.85
2022-12-15T23:40:21.233Z,20.63
2022-12-15T23:42:49.188Z,24.50
2022-12-15T23:45:16.007Z,22.25
2022-12-15T23:47:42.927Z,22.27
2022-12-15T23:50:09.770Z,28.88
2022-12-15T23:52:36.959Z,23.50
2022-12-15T23:55:04.541Z,21.92
2022-12-15T23:57:31.943Z,22.45
2022-12-15T23:59:58.599Z,20.48
